Time;durP1;ratioP1;P1;durP2;ratioP2;P2;SDS_P1;SDS_P2;PMS_P1;PMS_P2;Temp;Humidity;BMP_temperature;BMP_pressure;BME280_temperature;BME280_humidity;BME280_pressure;Samples;Min_cycle;Max_cycle;Signal;HPM_P1;HPM_P2
2023/01/13 00:00:34;;;;;;;2.00;1.53;;;13.70;59.80;;;;;;5061420;28;21051;-87
2023/01/13 00:03:01;;;;;;;1.60;1.10;;;13.60;59.70;;;;;;5058359;28;20442;-87
2023/01/13 00:05:28;;;;;;;2.43;1.00;;;13.70;59.60;;;;;;5055742;28;20458;-86
2023/01/13 00:07:55;;;;;;;2.60;1.00;;;13.70;59.70;;;;;;5080746;28;20940;-87
2023/01/13 00:10:23;;;;;;;1.77;0.70;;;13.40;60.00;;;;;;5081516;28;20500;-88
2023/01/13 00:12:52;;;;;;;1.10;0.80;;;13.60;60.00;;;;;;5082637;28;20500;-87
2023/01/13 00:15:19;;;;;;;1.37;1.17;;;13.50;59.70;;;;;;5081877;28;20478;-88
2023/01/13 00:17:47;;;;;;;6.47;1.10;;;13.70;59.60;;;;;;5066607;28;20457;-89
2023/01/13 00:20:15;;;;;;;1.57;0.90;;;13.80;59.30;;;;;;5051963;27;20529;-88
2023/01/13 00:22:41;;;;;;;1.37;0.90;;;14.00;59.10;;;;;;5055518;28;20479;-87
2023/01/13 00:25:09;;;;;;;1.70;0.97;;;14.00;59.20;;;;;;5068485;28;20446;-87
2023/01/13 00:27:37;;;;;;;3.67;1.20;;;14.10;58.60;;;;;;5069760;28;20439;-87
2023/01/13 00:30:06;;;;;;;1.30;0.93;;;14.00;58.90;;;;;;5053941;28;20572;-87
2023/01/13 00:32:33;;;;;;;3.37;1.10;;;14.10;58.30;;;;;;5085394;28;20450;-87
2023/01/13 00:35:00;;;;;;;2.10;1.10;;;14.00;58.10;;;;;;5049036;28;20466;-87
2023/01/13 00:37:27;;;;;;;1.87;1.03;;;14.20;58.20;;;;;;5045049;27;20446;-86
2023/01/13 00:39:54;;;;;;;1.60;0.90;;;14.30;57.90;;;;;;5054084;28;20558;-87
2023/01/13 00:45:08;;;;;;;3.67;1.07;;;13.60;58.90;;;;;;5070662;28;20434;-87
2023/01/13 00:47:35;;;;;;;3.20;1.00;;;13.70;58.70;;;;;;5084748;28;20535;-87
2023/01/13 00:50:01;;;;;;;4.00;1.00;;;13.80;58.30;;;;;;5069207;28;20470;-86
2023/01/13 00:52:28;;;;;;;5.03;1.07;;;13.80;59.40;;;;;;5047916;28;20467;-87
2023/01/13 00:54:55;;;;;;;3.90;1.00;;;13.80;58.50;;;;;;5054154;28;21105;-88
2023/01/13 00:57:22;;;;;;;1.10;0.80;;;13.70;58.50;;;;;;5051736;27;20439;-87
2023/01/13 00:59:49;;;;;;;2.00;1.13;;;13.60;58.70;;;;;;5087781;28;21002;-88
2023/01/13 01:02:18;;;;;;;2.13;0.90;;;13.70;58.60;;;;;;5069274;28;20978;-88
2023/01/13 01:04:45;;;;;;;1.00;0.90;;;13.80;58.60;;;;;;5043905;28;20474;-88
2023/01/13 01:07:11;;;;;;;1.80;1.00;;;13.70;58.40;;;;;;5045519;28;20462;-88
2023/01/13 01:09:39;;;;;;;2.63;0.90;;;13.70;58.60;;;;;;5087691;28;20497;-87
2023/01/13 01:12:06;;;;;;;1.00;0.80;;;13.80;58.70;;;;;;5059869;28;20605;-85
2023/01/13 01:14:33;;;;;;;1.10;0.70;;;13.80;58.50;;;;;;5069503;28;20807;-87
2023/01/13 01:17:00;;;;;;;2.13;0.97;;;13.90;58.30;;;;;;5048858;28;20450;-85
2023/01/13 01:19:29;;;;;;;1.20;0.87;;;14.00;58.40;;;;;;5068918;28;20451;-88
2023/01/13 01:21:56;;;;;;;0.80;0.70;;;14.10;57.80;;;;;;5046826;28;20443;-87
2023/01/13 01:24:23;;;;;;;2.03;0.70;;;14.00;58.00;;;;;;5067845;28;20447;-87
2023/01/13 01:26:50;;;;;;;2.83;1.10;;;14.00;57.90;;;;;;5054500;28;20455;-87
2023/01/13 01:29:17;;;;;;;2.73;1.03;;;14.00;58.30;;;;;;5085288;28;21046;-88
2023/01/13 01:31:44;;;;;;;3.43;0.97;;;14.10;57.70;;;;;;5053084;28;20920;-87
2023/01/13 01:34:11;;;;;;;1.30;0.80;;;14.00;58.00;;;;;;5076969;28;20534;-87
2023/01/13 01:36:39;;;;;;;1.10;1.00;;;13.90;58.50;;;;;;5081772;28;21014;-88
2023/01/13 01:39:06;;;;;;;1.73;1.00;;;14.00;58.40;;;;;;5068167;28;20835;-88
2023/01/13 01:41:35;;;;;;;1.27;1.17;;;14.00;58.60;;;;;;5067764;27;20446;-87
2023/01/13 01:44:06;;;;;;;1.00;0.90;;;13.80;58.90;;;;;;5051216;28;20455;-87
2023/01/13 01:46:36;;;;;;;2.80;1.00;;;13.80;59.20;;;;;;5069347;28;20512;-88
2023/01/13 01:49:12;;;;;;;1.57;1.20;;;13.80;59.10;;;;;;5067704;28;20952;-86
2023/01/13 01:51:44;;;;;;;2.13;0.73;;;14.00;58.90;;;;;;5069146;27;20468;-87
2023/01/13 01:54:14;;;;;;;5.17;1.93;;;14.10;59.00;;;;;;5068103;28;20451;-88
2023/01/13 01:56:43;;;;;;;2.60;0.93;;;14.10;58.90;;;;;;5052520;28;20454;-88
2023/01/13 01:59:11;;;;;;;2.23;1.27;;;13.90;59.70;;;;;;5066909;28;21079;-88
2023/01/13 02:01:40;;;;;;;4.40;2.40;;;13.90;59.70;;;;;;5052472;28;20458;-88
2023/01/13 02:04:12;;;;;;;3.97;2.20;;;13.90;59.90;;;;;;5054198;28;20470;-87
2023/01/13 02:06:42;;;;;;;1.87;0.90;;;13.90;60.40;;;;;;5086535;28;20453;-87
2023/01/13 02:09:09;;;;;;;6.20;2.20;;;13.60;61.50;;;;;;5048040;28;20506;-88
2023/01/13 02:14:31;;;;;;;4.60;1.57;;;13.50;62.10;;;;;;5015741;28;20896;-86
2023/01/13 02:17:15;;;;;;;4.30;1.63;;;13.80;61.70;;;;;;5067504;28;20443;-86
2023/01/13 02:20:21;;;;;;;0.93;0.83;;;13.80;61.90;;;;;;5068947;28;20459;-88
2023/01/13 02:26:41;;;;;;;1.73;0.90;;;13.80;62.30;;;;;;5103144;28;20443;-88
2023/01/13 02:32:10;;;;;;;4.27;0.90;;;13.80;62.20;;;;;;5070040;28;20439;-87
2023/01/13 02:34:42;;;;;;;1.00;0.90;;;13.90;62.10;;;;;;5073877;28;20462;-86
2023/01/13 02:37:15;;;;;;;1.00;0.90;;;14.20;61.30;;;;;;5082101;28;20834;-87
2023/01/13 02:39:48;;;;;;;1.87;1.40;;;14.00;61.40;;;;;;5086469;28;20462;-87
2023/01/13 02:45:11;;;;;;;1.07;0.80;;;13.60;62.70;;;;;;5046159;28;20678;-86
2023/01/13 02:47:44;;;;;;;1.73;1.10;;;13.50;62.90;;;;;;5047585;28;20897;-88
2023/01/13 02:50:16;;;;;;;1.63;1.00;;;13.60;62.70;;;;;;5087205;28;20478;-87
2023/01/13 02:52:47;;;;;;;1.73;0.93;;;13.40;63.30;;;;;;5068245;28;20443;-88
2023/01/13 02:55:17;;;;;;;1.00;0.90;;;13.10;63.80;;;;;;5066658;28;20970;-87
2023/01/13 02:57:46;;;;;;;1.53;1.13;;;13.20;64.00;;;;;;5070667;27;20443;-88
2023/01/13 03:00:16;;;;;;;1.07;0.80;;;13.40;63.70;;;;;;5085818;28;20466;-87
2023/01/13 03:02:44;;;;;;;1.10;1.00;;;13.10;63.90;;;;;;5068294;28;20443;-86
2023/01/13 03:05:15;;;;;;;1.27;1.00;;;13.10;64.70;;;;;;5083267;28;20463;-87
2023/01/13 03:08:04;;;;;;;1.00;0.90;;;13.20;64.90;;;;;;5074978;27;20451;-87
2023/01/13 03:10:47;;;;;;;1.83;0.90;;;13.20;64.50;;;;;;5082704;27;20865;-88
2023/01/13 03:13:30;;;;;;;1.00;0.90;;;13.30;64.70;;;;;;5050475;28;20470;-87
2023/01/13 03:16:05;;;;;;;1.97;0.83;;;13.30;64.70;;;;;;5081046;28;20447;-88
2023/01/13 03:18:44;;;;;;;2.00;1.00;;;13.40;64.70;;;;;;5073997;28;20456;-88
2023/01/13 03:21:18;;;;;;;2.80;0.80;;;13.40;64.30;;;;;;5062703;28;20443;-88
2023/01/13 03:23:51;;;;;;;1.57;0.70;;;13.10;64.90;;;;;;5051839;28;20446;-88
2023/01/13 03:26:24;;;;;;;1.70;0.93;;;13.00;65.30;;;;;;5076492;28;20441;-85
2023/01/13 03:28:56;;;;;;;3.10;0.87;;;12.80;66.00;;;;;;5051540;28;20450;-88
2023/01/13 03:31:31;;;;;;;1.77;1.00;;;12.80;65.70;;;;;;5049753;28;20804;-88
2023/01/13 03:34:04;;;;;;;2.20;1.17;;;13.10;66.10;;;;;;5066430;28;20450;-87
2023/01/13 03:36:33;;;;;;;2.50;0.90;;;13.20;65.10;;;;;;5050853;28;20462;-88
2023/01/13 03:39:05;;;;;;;1.00;0.80;;;13.30;64.70;;;;;;5043736;28;20487;-87
2023/01/13 03:41:36;;;;;;;2.00;0.77;;;13.20;64.60;;;;;;5084104;28;20462;-88
2023/01/13 03:44:23;;;;;;;1.80;1.20;;;13.40;64.30;;;;;;5068805;28;20443;-85
2023/01/13 03:46:59;;;;;;;1.10;0.90;;;13.30;64.00;;;;;;5067784;28;20978;-88
2023/01/13 03:49:34;;;;;;;0.90;0.70;;;13.30;64.30;;;;;;5077725;28;20455;-88
2023/01/13 03:52:05;;;;;;;1.73;0.83;;;13.40;63.90;;;;;;5079823;28;20449;-88
2023/01/13 03:54:43;;;;;;;1.00;0.80;;;13.40;63.90;;;;;;5049146;28;20946;-88
2023/01/13 03:57:14;;;;;;;1.00;0.90;;;13.40;64.00;;;;;;5065504;28;20463;-88
2023/01/13 03:59:44;;;;;;;2.20;1.27;;;13.50;63.70;;;;;;5067334;28;20470;-87
2023/01/13 04:02:19;;;;;;;1.73;0.93;;;13.50;63.70;;;;;;5056004;28;20447;-88
2023/01/13 04:04:51;;;;;;;1.20;0.80;;;13.50;63.30;;;;;;5050988;28;20457;-87
2023/01/13 04:07:27;;;;;;;1.50;0.80;;;13.50;63.40;;;;;;5060003;28;20840;-88
2023/01/13 04:09:56;;;;;;;0.87;0.80;;;13.30;63.60;;;;;;5083291;28;20470;-88
2023/01/13 04:12:59;;;;;;;0.90;0.83;;;13.30;64.50;;;;;;5064181;28;20455;-86
2023/01/13 04:15:16;;;;;;;1.53;0.97;;;13.40;63.60;;;;;;5078498;28;20465;-88
2023/01/13 04:17:43;;;;;;;1.73;0.67;;;13.30;63.80;;;;;;5067426;28;20982;-87
2023/01/13 04:20:12;;;;;;;1.57;0.83;;;13.50;63.40;;;;;;5096684;28;20467;-87
2023/01/13 04:22:39;;;;;;;2.70;1.97;;;13.50;63.40;;;;;;5050008;28;20457;-87
2023/01/13 04:25:07;;;;;;;46.20;15.80;;;13.60;63.80;;;;;;5063106;28;21006;-86
2023/01/13 04:27:34;;;;;;;9.80;2.40;;;13.80;62.40;;;;;;5064812;28;20458;-86
2023/01/13 04:30:01;;;;;;;2.40;1.40;;;13.80;62.10;;;;;;5069614;28;20474;-87
2023/01/13 04:32:28;;;;;;;1.33;1.00;;;13.70;62.50;;;;;;5036948;28;20458;-87
2023/01/13 04:34:55;;;;;;;2.27;1.50;;;13.80;62.20;;;;;;5066268;28;20613;-88
2023/01/13 04:37:23;;;;;;;3.30;1.73;;;13.70;62.40;;;;;;5082760;28;20442;-88
2023/01/13 04:39:50;;;;;;;2.40;1.37;;;13.70;62.70;;;;;;5052000;28;20465;-87
2023/01/13 04:42:17;;;;;;;1.60;1.40;;;13.60;63.00;;;;;;5046716;28;20453;-88
2023/01/13 04:44:44;;;;;;;1.30;1.20;;;13.70;62.30;;;;;;5068282;28;20506;-88
2023/01/13 04:47:11;;;;;;;4.23;2.10;;;13.80;62.80;;;;;;5063672;28;20457;-87
2023/01/13 04:49:38;;;;;;;1.97;1.40;;;13.90;62.30;;;;;;5058293;28;20794;-88
2023/01/13 04:52:06;;;;;;;3.73;1.60;;;13.80;62.40;;;;;;5061480;28;20457;-87
2023/01/13 04:54:34;;;;;;;2.50;1.90;;;13.90;62.20;;;;;;5083665;28;20442;-88
2023/01/13 04:57:01;;;;;;;4.20;3.53;;;13.90;61.80;;;;;;5061580;28;20995;-87
2023/01/13 04:59:28;;;;;;;1.00;0.90;;;13.90;62.00;;;;;;5057899;28;20460;-87
2023/01/13 05:01:55;;;;;;;1.53;1.20;;;13.90;62.30;;;;;;5049456;28;20805;-88
2023/01/13 05:04:22;;;;;;;1.00;0.80;;;13.90;62.30;;;;;;5078632;28;20741;-86
2023/01/13 05:06:49;;;;;;;2.10;1.30;;;13.60;62.70;;;;;;5068557;28;20454;-88
2023/01/13 05:09:16;;;;;;;4.07;1.50;;;13.70;62.80;;;;;;5051491;28;20821;-87
2023/01/13 05:17:19;;;;;;;2.27;1.30;;;13.50;63.40;;;;;;5069478;28;20489;-87
2023/01/13 05:19:46;;;;;;;6.37;2.47;;;13.30;63.90;;;;;;5059860;28;20907;-88
2023/01/13 05:27:43;;;;;;;6.10;3.50;;;13.50;63.70;;;;;;5060930;27;20457;-87
2023/01/13 05:30:11;;;;;;;3.80;3.40;;;13.30;64.70;;;;;;5047327;28;20485;-88
2023/01/13 05:32:38;;;;;;;4.00;1.30;;;13.30;64.60;;;;;;5052496;27;20534;-87
2023/01/13 05:35:05;;;;;;;1.50;1.20;;;13.50;64.50;;;;;;5052250;28;20447;-87
2023/01/13 05:37:33;;;;;;;6.73;5.20;;;13.70;63.60;;;;;;5069772;27;20508;-87
2023/01/13 05:45:30;;;;;;;7.97;4.87;;;13.60;62.80;;;;;;5060521;27;20561;-88
2023/01/13 05:47:57;;;;;;;0.87;0.87;;;13.80;62.40;;;;;;5069652;28;20816;-85
2023/01/13 05:50:25;;;;;;;10.17;4.87;;;13.50;62.90;;;;;;5040909;28;20473;-86
2023/01/13 05:52:52;;;;;;;3.97;2.50;;;13.50;62.80;;;;;;5086803;28;20439;-87
2023/01/13 05:55:19;;;;;;;15.17;7.93;;;13.70;62.80;;;;;;5101451;27;20478;-86
2023/01/13 05:57:47;;;;;;;7.00;2.30;;;13.50;62.70;;;;;;5066654;28;20764;-87
2023/01/13 06:00:15;;;;;;;9.03;4.30;;;13.50;63.10;;;;;;5082208;28;21207;-86
2023/01/13 06:02:42;;;;;;;6.40;3.80;;;13.20;63.30;;;;;;5067376;27;20439;-87
2023/01/13 06:05:09;;;;;;;2.30;2.10;;;13.20;63.90;;;;;;5082267;28;20457;-86
2023/01/13 06:07:36;;;;;;;2.63;2.30;;;13.10;63.90;;;;;;5066112;28;20435;-85
2023/01/13 06:10:03;;;;;;;1.77;0.93;;;13.30;63.70;;;;;;5049446;28;20497;-85
2023/01/13 06:12:30;;;;;;;1.33;1.00;;;13.30;63.00;;;;;;5052595;28;20845;-86
2023/01/13 06:14:59;;;;;;;1.43;1.00;;;13.40;62.90;;;;;;5067925;28;20455;-87
2023/01/13 06:17:26;;;;;;;1.20;1.10;;;13.50;62.30;;;;;;5080452;28;20445;-85
2023/01/13 06:19:53;;;;;;;1.90;0.77;;;13.50;62.60;;;;;;5086847;28;20972;-85
2023/01/13 06:22:23;;;;;;;1.30;1.00;;;13.40;63.10;;;;;;5068760;28;20450;-86
2023/01/13 06:24:52;;;;;;;1.00;0.80;;;13.70;61.80;;;;;;5052683;28;20451;-85
2023/01/13 06:27:20;;;;;;;1.53;1.43;;;13.40;61.80;;;;;;5069808;28;20535;-85
2023/01/13 06:29:48;;;;;;;1.93;1.20;;;13.40;62.60;;;;;;5084305;28;20495;-85
2023/01/13 06:32:18;;;;;;;1.47;0.90;;;13.60;61.90;;;;;;5050449;28;20439;-85
2023/01/13 06:34:50;;;;;;;1.37;1.07;;;13.70;61.70;;;;;;5076851;28;20442;-84
2023/01/13 06:37:24;;;;;;;2.37;1.10;;;13.80;60.80;;;;;;5083763;28;20445;-86
2023/01/13 06:39:54;;;;;;;1.10;0.80;;;13.90;60.90;;;;;;5066663;28;21365;-85
2023/01/13 06:45:05;;;;;;;2.87;0.97;;;13.80;61.40;;;;;;5037735;28;20583;-85
2023/01/13 06:47:33;;;;;;;1.90;1.43;;;13.90;61.80;;;;;;5082147;27;20455;-85
2023/01/13 06:50:00;;;;;;;3.97;1.60;;;13.80;62.40;;;;;;5044767;28;20470;-84
2023/01/13 06:52:29;;;;;;;1.30;1.03;;;13.80;63.30;;;;;;5050739;28;20439;-85
2023/01/13 06:54:56;;;;;;;1.80;0.93;;;13.40;63.80;;;;;;5085929;28;20818;-87
2023/01/13 06:57:23;;;;;;;1.30;1.20;;;13.60;64.30;;;;;;5081460;28;20447;-86
2023/01/13 06:59:50;;;;;;;1.97;1.00;;;13.50;65.10;;;;;;5053997;28;20492;-86
2023/01/13 07:02:17;;;;;;;1.77;1.00;;;13.40;65.40;;;;;;5084805;28;20928;-86
2023/01/13 07:04:46;;;;;;;1.83;1.23;;;13.60;65.50;;;;;;5084785;28;20453;-86
2023/01/13 07:07:13;;;;;;;1.10;1.00;;;13.60;65.30;;;;;;5098030;27;20457;-86
2023/01/13 07:09:40;;;;;;;4.40;1.27;;;13.70;65.20;;;;;;5063232;28;20459;-86
2023/01/13 07:12:07;;;;;;;1.20;1.00;;;13.50;65.40;;;;;;5067227;28;20469;-86
2023/01/13 07:17:23;;;;;;;1.93;1.20;;;13.60;65.70;;;;;;5084171;28;20461;-85
2023/01/13 07:19:52;;;;;;;1.60;1.50;;;13.50;66.00;;;;;;5049260;28;20473;-85
2023/01/13 07:22:19;;;;;;;2.23;1.40;;;13.50;66.50;;;;;;5081284;28;20431;-86
2023/01/13 07:24:46;;;;;;;1.73;1.63;;;13.60;66.80;;;;;;5059898;28;20451;-85
2023/01/13 07:27:13;;;;;;;2.70;2.50;;;12.80;68.00;;;;;;5069527;28;20486;-84
2023/01/13 07:29:40;;;;;;;1.40;0.90;;;12.50;67.70;;;;;;5078069;28;20458;-84
2023/01/13 07:32:07;;;;;;;0.90;0.80;;;12.50;68.70;;;;;;5057578;28;20455;-85
2023/01/13 07:34:34;;;;;;;1.80;0.80;;;12.10;67.20;;;;;;5061609;28;20500;-84
2023/01/13 07:37:02;;;;;;;0.87;0.80;;;11.90;66.70;;;;;;5075560;28;20479;-84
2023/01/13 07:39:29;;;;;;;1.00;0.80;;;11.90;67.70;;;;;;5046839;28;20490;-85
2023/01/13 07:44:41;;;;;;;1.40;0.93;;;12.40;67.60;;;;;;5067610;28;20963;-84
2023/01/13 07:47:09;;;;;;;2.53;1.17;;;12.70;66.20;;;;;;5049492;28;20446;-84
2023/01/13 07:49:37;;;;;;;1.73;1.07;;;12.90;66.40;;;;;;5063635;28;20455;-85
2023/01/13 07:52:05;;;;;;;2.60;0.80;;;12.80;64.90;;;;;;5065691;28;20522;-83
2023/01/13 07:54:32;;;;;;;0.90;0.80;;;12.80;65.30;;;;;;5098715;28;20553;-84
2023/01/13 07:56:59;;;;;;;1.20;0.77;;;12.80;64.30;;;;;;5065745;28;21055;-84
2023/01/13 07:59:26;;;;;;;1.03;0.80;;;12.70;65.10;;;;;;5055966;28;21007;-85
2023/01/13 08:01:53;;;;;;;2.60;0.90;;;12.70;65.60;;;;;;5080780;28;20974;-84
2023/01/13 08:04:20;;;;;;;1.77;1.27;;;12.70;65.30;;;;;;5098804;28;20896;-84
2023/01/13 08:06:47;;;;;;;5.93;3.00;;;12.40;65.40;;;;;;5065336;28;20449;-83
2023/01/13 08:09:16;;;;;;;5.37;2.40;;;12.50;65.00;;;;;;5047919;28;20523;-84
2023/01/13 08:11:43;;;;;;;1.40;1.30;;;12.30;65.30;;;;;;5082454;28;21178;-83
2023/01/13 08:14:10;;;;;;;1.40;1.30;;;12.30;66.00;;;;;;5068649;28;20450;-85
2023/01/13 08:16:37;;;;;;;18.20;5.77;;;12.20;66.50;;;;;;5065626;28;20538;-84
2023/01/13 08:19:04;;;;;;;22.90;11.13;;;12.30;66.40;;;;;;5045746;28;20457;-83
2023/01/13 08:21:30;;;;;;;7.53;4.60;;;12.50;66.00;;;;;;5083508;28;21018;-84
2023/01/13 08:23:57;;;;;;;4.67;4.20;;;12.40;65.80;;;;;;5074810;28;20488;-83
2023/01/13 08:26:26;;;;;;;17.07;9.13;;;12.50;66.20;;;;;;5065034;28;20858;-83
2023/01/13 08:28:53;;;;;;;5.87;4.23;;;12.60;65.50;;;;;;5066539;28;20448;-83
2023/01/13 08:31:20;;;;;;;1.07;0.97;;;12.70;65.30;;;;;;5081829;28;20470;-84
2023/01/13 08:33:48;;;;;;;2.30;1.50;;;12.70;65.00;;;;;;5068057;28;20550;-84
2023/01/13 08:36:17;;;;;;;2.80;1.87;;;12.50;65.70;;;;;;5049147;28;20808;-86
2023/01/13 08:38:44;;;;;;;1.37;1.20;;;12.50;65.90;;;;;;5064261;28;20446;-85
2023/01/13 08:41:12;;;;;;;2.87;2.43;;;12.60;66.00;;;;;;5083603;28;20479;-83
2023/01/13 08:43:40;;;;;;;2.53;1.87;;;12.60;65.80;;;;;;5069095;28;20553;-85
2023/01/13 08:46:07;;;;;;;7.10;3.67;;;12.40;65.70;;;;;;5067851;28;20498;-84
2023/01/13 08:48:35;;;;;;;6.77;4.57;;;12.00;66.70;;;;;;5049965;28;20451;-85
2023/01/13 08:51:03;;;;;;;6.33;3.50;;;11.80;65.50;;;;;;5060790;28;20467;-84
2023/01/13 08:53:31;;;;;;;2.70;1.87;;;11.70;66.40;;;;;;5061289;28;20447;-84
2023/01/13 08:55:58;;;;;;;1.10;0.90;;;11.90;65.70;;;;;;5072728;28;20537;-84
2023/01/13 08:58:25;;;;;;;0.90;0.80;;;11.80;66.00;;;;;;5066143;28;20473;-84
2023/01/13 09:00:53;;;;;;;7.50;3.90;;;11.90;64.80;;;;;;5065991;28;20463;-84
2023/01/13 09:03:20;;;;;;;1.90;1.50;;;11.90;65.60;;;;;;5069639;28;20450;-84
2023/01/13 09:05:47;;;;;;;1.47;1.10;;;12.20;65.40;;;;;;5050950;28;20446;-84
2023/01/13 09:08:14;;;;;;;2.07;1.67;;;12.00;64.30;;;;;;5049003;28;20450;-84
2023/01/13 09:10:41;;;;;;;7.57;6.00;;;12.10;65.00;;;;;;5048190;28;21256;-84
2023/01/13 09:13:12;;;;;;;5.93;3.30;;;11.90;64.20;;;;;;5057545;28;20831;-84
2023/01/13 09:15:40;;;;;;;20.47;17.50;;;12.10;65.00;;;;;;5067024;28;20433;-83
2023/01/13 09:18:08;;;;;;;3.40;2.77;;;12.10;64.00;;;;;;5067896;28;20975;-85
2023/01/13 09:20:35;;;;;;;1.53;1.30;;;12.20;64.50;;;;;;5063930;28;20466;-84
2023/01/13 09:23:03;;;;;;;2.60;2.40;;;12.30;64.20;;;;;;5085448;28;20510;-85
2023/01/13 09:25:30;;;;;;;1.90;1.60;;;12.30;63.80;;;;;;5065463;28;20548;-83
2023/01/13 09:27:58;;;;;;;1.10;1.00;;;12.40;63.80;;;;;;5085203;28;20450;-85
2023/01/13 09:30:25;;;;;;;6.37;4.17;;;12.20;63.90;;;;;;5062625;28;20467;-84
2023/01/13 09:34:58;;;;;;;4.27;2.27;;;12.20;64.60;;;;;;5048878;27;20477;-85
2023/01/13 09:35:39;;;;;;;7.30;2.90;;;12.10;64.30;;;;;;5068185;28;20816;-84
2023/01/13 09:38:06;;;;;;;1.97;1.77;;;12.10;64.30;;;;;;5101444;27;20451;-83
2023/01/13 09:40:34;;;;;;;2.63;1.80;;;12.00;64.60;;;;;;5064373;28;21821;-83
2023/01/13 09:45:57;;;;;;;1.80;1.63;;;11.90;64.10;;;;;;5047634;28;21002;-85
2023/01/13 09:48:29;;;;;;;1.20;1.10;;;11.90;64.40;;;;;;5081540;28;20447;-84
2023/01/13 09:51:08;;;;;;;3.43;1.97;;;11.90;63.90;;;;;;5041790;28;20483;-84
2023/01/13 09:53:43;;;;;;;5.90;4.23;;;11.90;63.70;;;;;;5068143;28;20450;-85
2023/01/13 09:56:11;;;;;;;7.87;3.40;;;12.10;63.50;;;;;;5086379;28;20488;-85
2023/01/13 09:58:38;;;;;;;7.67;2.00;;;12.10;62.60;;;;;;5052909;28;20960;-84
2023/01/13 10:01:20;;;;;;;1.33;1.23;;;12.30;63.30;;;;;;5066954;28;20491;-84
2023/01/13 10:03:48;;;;;;;2.80;1.23;;;12.00;63.70;;;;;;5059730;28;20450;-84
2023/01/13 10:06:21;;;;;;;2.87;1.20;;;12.00;63.50;;;;;;5099399;28;20466;-85
2023/01/13 10:08:49;;;;;;;2.73;2.20;;;12.10;64.50;;;;;;5102919;27;20952;-85
2023/01/13 10:14:10;;;;;;;3.40;1.40;;;12.10;63.50;;;;;;5069392;28;20957;-85
2023/01/13 10:16:44;;;;;;;1.83;1.67;;;12.20;62.90;;;;;;5066977;28;20499;-83
2023/01/13 10:19:17;;;;;;;3.80;1.90;;;12.30;62.30;;;;;;5043912;28;20578;-83
2023/01/13 10:22:20;;;;;;;3.67;3.27;;;12.10;62.20;;;;;;5065825;28;20450;-83
2023/01/13 10:25:07;;;;;;;4.43;2.33;;;12.10;62.80;;;;;;5082511;27;21065;-84
2023/01/13 10:27:35;;;;;;;6.73;2.03;;;12.30;62.00;;;;;;5085710;28;20833;-84
2023/01/13 10:30:18;;;;;;;2.47;1.43;;;12.50;62.60;;;;;;5080041;27;20546;-83
2023/01/13 10:32:50;;;;;;;3.20;0.90;;;12.30;62.00;;;;;;5102590;27;20500;-84
2023/01/13 10:35:17;;;;;;;2.83;1.80;;;12.40;61.60;;;;;;5049477;28;20444;-84
2023/01/13 10:37:56;;;;;;;1.30;1.00;;;12.50;61.60;;;;;;5043696;27;20459;-83
2023/01/13 10:40:25;;;;;;;3.83;3.43;;;12.50;61.80;;;;;;5065946;28;20459;-84
2023/01/13 10:43:05;;;;;;;4.37;3.40;;;12.70;61.30;;;;;;5101120;28;20442;-83
2023/01/13 10:45:32;;;;;;;5.87;2.47;;;12.60;60.20;;;;;;5084624;28;20454;-83
2023/01/13 10:48:07;;;;;;;5.80;2.40;;;12.50;59.90;;;;;;5086221;28;20455;-84
2023/01/13 10:50:36;;;;;;;3.97;2.27;;;12.60;59.70;;;;;;5085447;28;21911;-85
2023/01/13 10:53:17;;;;;;;5.20;3.03;;;12.50;59.20;;;;;;5084595;28;20459;-86
2023/01/13 10:55:59;;;;;;;6.20;3.10;;;12.70;59.80;;;;;;5054066;27;20447;-85
2023/01/13 10:58:26;;;;;;;13.43;7.07;;;12.60;58.90;;;;;;5083973;28;20450;-84
2023/01/13 11:01:01;;;;;;;3.43;2.47;;;12.40;58.20;;;;;;5052019;28;20471;-86
2023/01/13 11:03:40;;;;;;;1.87;1.47;;;12.60;58.50;;;;;;5065825;28;20458;-85
2023/01/13 11:06:08;;;;;;;1.33;1.23;;;12.40;58.20;;;;;;5069160;28;20776;-85
2023/01/13 11:08:44;;;;;;;3.87;1.70;;;12.40;58.20;;;;;;5068907;28;20952;-85
2023/01/13 11:11:36;;;;;;;3.20;1.97;;;12.50;57.60;;;;;;5068866;28;20463;-85
2023/01/13 11:16:56;;;;;;;1.20;1.10;;;12.70;57.40;;;;;;5083929;28;20459;-85
2023/01/13 11:19:27;;;;;;;3.17;1.20;;;12.70;57.40;;;;;;5074610;28;20462;-86
2023/01/13 11:22:00;;;;;;;1.87;1.77;;;12.70;56.50;;;;;;5066566;28;20439;-87
2023/01/13 11:24:35;;;;;;;7.40;1.53;;;12.80;56.40;;;;;;5083856;28;20439;-85
2023/01/13 11:27:08;;;;;;;4.27;1.60;;;12.80;56.70;;;;;;5068725;28;20480;-86
2023/01/13 11:29:43;;;;;;;2.43;1.47;;;13.00;56.10;;;;;;5074516;28;20481;-86
2023/01/13 11:32:14;;;;;;;2.70;1.27;;;12.80;55.60;;;;;;5063258;28;20502;-84
2023/01/13 11:34:43;;;;;;;2.97;1.37;;;12.80;56.10;;;;;;5066154;28;20438;-85
2023/01/13 11:37:18;;;;;;;2.87;1.30;;;12.90;54.90;;;;;;5085873;28;21103;-85
2023/01/13 11:39:54;;;;;;;8.97;2.23;;;13.00;54.60;;;;;;5067589;28;20469;-85
2023/01/13 11:42:27;;;;;;;3.23;2.93;;;13.00;55.30;;;;;;5070169;28;21247;-86
2023/01/13 11:45:07;;;;;;;4.17;1.70;;;13.10;54.70;;;;;;5079371;28;20451;-86
2023/01/13 11:47:36;;;;;;;3.00;2.70;;;13.00;53.60;;;;;;5066073;28;20455;-85
2023/01/13 11:50:03;;;;;;;5.57;2.70;;;13.00;55.80;;;;;;5065508;28;20464;-84
2023/01/13 11:52:46;;;;;;;4.30;1.30;;;13.10;54.50;;;;;;5050785;28;20477;-85
2023/01/13 11:55:31;;;;;;;3.53;1.20;;;13.10;53.60;;;;;;5097506;28;20453;-85
2023/01/13 11:58:22;;;;;;;3.40;1.57;;;13.00;54.40;;;;;;5064517;28;20443;-84
2023/01/13 12:01:04;;;;;;;4.40;1.00;;;13.10;54.50;;;;;;5085905;27;20545;-86
2023/01/13 12:03:36;;;;;;;1.33;1.10;;;13.20;54.50;;;;;;5068168;28;20819;-86
2023/01/13 12:06:19;;;;;;;4.40;1.60;;;13.20;53.90;;;;;;5062465;28;20439;-84
2023/01/13 12:09:11;;;;;;;3.80;1.40;;;13.40;54.00;;;;;;5072942;28;20450;-85
2023/01/13 12:14:43;;;;;;;4.37;1.30;;;13.10;52.10;;;;;;5068957;28;20457;-85
2023/01/13 12:17:20;;;;;;;1.00;0.90;;;13.30;52.90;;;;;;5091143;28;20814;-84
2023/01/13 12:19:50;;;;;;;5.80;3.50;;;13.20;52.10;;;;;;5090793;27;21372;-85
2023/01/13 12:22:23;;;;;;;9.77;3.60;;;13.30;52.70;;;;;;5087390;28;20488;-84
2023/01/13 12:24:56;;;;;;;2.70;1.50;;;13.00;51.50;;;;;;5075153;28;20449;-85
2023/01/13 12:27:33;;;;;;;3.77;2.50;;;13.20;52.60;;;;;;5055749;28;20538;-85
2023/01/13 12:30:04;;;;;;;2.40;1.00;;;13.30;51.80;;;;;;5082534;28;20994;-84
2023/01/13 12:32:35;;;;;;;3.13;2.80;;;13.20;53.10;;;;;;5069198;28;20971;-84
2023/01/13 12:35:19;;;;;;;4.63;1.47;;;13.20;52.10;;;;;;5073051;27;20525;-84
2023/01/13 12:37:52;;;;;;;7.37;2.57;;;13.20;50.70;;;;;;5055644;28;20444;-85
2023/01/13 12:40:28;;;;;;;3.10;1.47;;;12.90;50.60;;;;;;5087900;28;20505;-84
2023/01/13 12:45:49;;;;;;;5.10;2.80;;;13.20;51.00;;;;;;5108621;27;20441;-86
2023/01/13 12:49:17;;;;;;;2.30;1.50;;;13.40;50.40;;;;;;5091697;28;20439;-86
2023/01/13 12:52:06;;;;;;;6.77;2.50;;;13.30;50.70;;;;;;4993929;28;20456;-85
2023/01/13 12:55:13;;;;;;;2.40;1.97;;;13.30;49.80;;;;;;4994756;28;20453;-86
2023/01/13 12:57:54;;;;;;;6.43;1.37;;;13.70;49.90;;;;;;5079123;28;20450;-86
2023/01/13 13:00:21;;;;;;;2.10;1.00;;;14.00;49.60;;;;;;5077718;28;20462;-85
2023/01/13 13:03:28;;;;;;;1.87;1.50;;;13.70;49.00;;;;;;5055528;28;20438;-85
2023/01/13 13:06:07;;;;;;;3.13;1.80;;;13.50;48.50;;;;;;5082719;28;20811;-86
2023/01/13 13:09:07;;;;;;;1.37;0.90;;;13.20;50.40;;;;;;5049442;28;20973;-86
2023/01/13 13:14:59;;;;;;;4.97;0.90;;;13.80;49.40;;;;;;5068746;28;21006;-85
2023/01/13 13:18:01;;;;;;;17.20;6.20;;;14.20;49.10;;;;;;5105336;28;20887;-86
2023/01/13 13:20:55;;;;;;;8.43;4.70;;;14.30;48.70;;;;;;5094581;27;20987;-86
2023/01/13 13:23:48;;;;;;;11.70;5.10;;;14.00;48.70;;;;;;5085444;28;20975;-85
2023/01/13 13:26:29;;;;;;;7.90;3.10;;;14.00;49.00;;;;;;5104352;27;20449;-84
2023/01/13 13:29:12;;;;;;;5.27;2.77;;;14.00;49.80;;;;;;5047099;28;20533;-85
2023/01/13 13:32:00;;;;;;;4.17;2.97;;;14.00;48.60;;;;;;5050862;28;20565;-86
2023/01/13 13:34:34;;;;;;;6.10;3.43;;;14.00;48.30;;;;;;5064040;28;20846;-84
2023/01/13 13:37:15;;;;;;;2.80;1.40;;;14.20;49.20;;;;;;5052201;28;20446;-85
2023/01/13 13:48:25;;;;;;;6.13;1.80;;;13.60;47.70;;;;;;5053674;27;20430;-86
2023/01/13 13:50:56;;;;;;;5.40;1.40;;;13.60;47.90;;;;;;5067359;28;20550;-86
2023/01/13 13:53:27;;;;;;;8.10;1.43;;;13.60;48.90;;;;;;5051164;28;20478;-86
2023/01/13 13:55:58;;;;;;;4.10;1.27;;;13.50;47.60;;;;;;5084797;28;20847;-86
2023/01/13 13:58:27;;;;;;;4.77;1.30;;;13.60;48.70;;;;;;5067876;28;20465;-85
2023/01/13 14:00:54;;;;;;;4.20;1.33;;;13.40;48.10;;;;;;5103242;27;20478;-85
2023/01/13 14:03:25;;;;;;;4.03;1.13;;;13.40;48.50;;;;;;5078342;28;20447;-85
2023/01/13 14:05:58;;;;;;;4.30;1.20;;;13.30;48.50;;;;;;5057101;28;20451;-86
2023/01/13 14:08:28;;;;;;;1.27;1.00;;;13.40;48.60;;;;;;5061227;28;20451;-85
2023/01/13 14:10:56;;;;;;;2.97;1.17;;;13.30;48.30;;;;;;5053033;28;20566;-85
2023/01/13 14:13:25;;;;;;;6.00;1.80;;;13.20;48.40;;;;;;5067166;28;20469;-85